createdAt,value
2022-10-26T00:00:12.294Z,98040.19
2022-10-26T00:02:39.030Z,98048.88
2022-10-26T00:05:06.211Z,98050.47
2022-10-26T00:07:32.906Z,98044.00
2022-10-26T00:09:59.509Z,98044.00
2022-10-26T00:12:26.110Z,98041.38
2022-10-26T00:15:18.661Z,98037.22
2022-10-26T00:17:46.281Z,98053.78
2022-10-26T00:20:13.553Z,98045.69
2022-10-26T00:22:40.255Z,98047.59
2022-10-26T00:25:07.166Z,98043.66
2022-10-26T00:27:34.757Z,98052.13
2022-10-26T00:30:02.688Z,98042.22
2022-10-26T00:32:29.349Z,98039.25
2022-10-26T00:34:55.953Z,98037.59
2022-10-26T00:37:22.517Z,98043.28
2022-10-26T00:39:49.141Z,98042.13
2022-10-26T00:42:19.733Z,98039.59
2022-10-26T00:44:49.387Z,98036.72
2022-10-26T00:47:31.599Z,98042.13
2022-10-26T00:50:02.846Z,98032.44
2022-10-26T00:52:29.986Z,98034.25
2022-10-26T00:54:56.562Z,98036.13
2022-10-26T00:57:23.454Z,98026.00
2022-10-26T00:59:52.561Z,98036.59
2022-10-26T01:02:19.302Z,98029.22
2022-10-26T01:04:47.229Z,98037.31
2022-10-26T01:07:14.761Z,98032.66
2022-10-26T01:09:42.038Z,98031.59
2022-10-26T01:12:08.606Z,98032.75
2022-10-26T01:14:35.494Z,98032.91
2022-10-26T01:17:16.911Z,98029.41
2022-10-26T01:19:58.434Z,98035.38
2022-10-26T01:22:43.897Z,98026.31
2022-10-26T01:25:23.507Z,98025.94
2022-10-26T01:27:52.712Z,98028.56
2022-10-26T01:30:29.455Z,98024.66
2022-10-26T01:33:09.880Z,98021.78
2022-10-26T01:35:51.005Z,98015.97
2022-10-26T01:38:33.908Z,98009.53
2022-10-26T01:41:26.220Z,98013.59
2022-10-26T01:44:09.345Z,98018.59
2022-10-26T01:46:40.461Z,98018.44
2022-10-26T01:49:11.214Z,98012.50
2022-10-26T01:51:44.170Z,98010.72
2022-10-26T01:54:10.932Z,98014.84
2022-10-26T01:56:46.283Z,98007.81
2022-10-26T01:59:22.514Z,98002.91
2022-10-26T02:01:49.362Z,97995.78
2022-10-26T02:04:39.974Z,97996.38
2022-10-26T02:07:24.754Z,97990.38
2022-10-26T02:10:04.960Z,97993.13
2022-10-26T02:12:37.049Z,97993.91
2022-10-26T02:15:18.107Z,97996.44
2022-10-26T02:17:51.299Z,97991.41
2022-10-26T02:20:31.842Z,97987.22
2022-10-26T02:23:04.044Z,97987.56
2022-10-26T02:25:34.626Z,97977.34
2022-10-26T02:28:06.734Z,97984.00
2022-10-26T02:30:35.418Z,97975.97
2022-10-26T02:33:05.379Z,97985.75
2022-10-26T02:35:36.049Z,97981.78
2022-10-26T02:38:07.726Z,97979.56
2022-10-26T02:40:35.745Z,97972.44
2022-10-26T02:43:08.102Z,97968.47
2022-10-26T02:45:39.358Z,97961.47
2022-10-26T02:48:06.643Z,97969.81
2022-10-26T02:50:47.555Z,97971.03
2022-10-26T02:53:46.473Z,97969.81
2022-10-26T02:56:26.466Z,97978.00
2022-10-26T02:58:57.802Z,97977.78
2022-10-26T03:01:24.945Z,97975.50
2022-10-26T03:03:51.679Z,97987.25
2022-10-26T03:06:24.822Z,97984.88
2022-10-26T03:08:51.639Z,97983.50
2022-10-26T03:11:18.558Z,97984.56
2022-10-26T03:13:45.473Z,97992.44
2022-10-26T03:16:12.059Z,97991.25
2022-10-26T03:18:38.721Z,97994.13
2022-10-26T03:21:05.467Z,97988.47
2022-10-26T03:23:32.100Z,97988.88
2022-10-26T03:25:59.536Z,98001.00
2022-10-26T03:28:26.358Z,97996.13
2022-10-26T03:30:53.037Z,97994.53
2022-10-26T03:33:21.523Z,97993.94
2022-10-26T03:35:55.778Z,97992.66
2022-10-26T03:38:22.413Z,97996.38
2022-10-26T03:40:48.961Z,97993.19
2022-10-26T03:43:15.531Z,97997.34
2022-10-26T03:45:42.085Z,97994.16
2022-10-26T03:48:08.666Z,97997.88
2022-10-26T03:50:35.398Z,97996.44
2022-10-26T03:53:02.019Z,97994.09
2022-10-26T03:55:28.578Z,97994.69
2022-10-26T03:57:55.201Z,97984.34
2022-10-26T04:00:21.835Z,97993.84
2022-10-26T04:02:55.735Z,97986.88
2022-10-26T04:05:23.057Z,97982.25
2022-10-26T04:07:58.001Z,97985.34
2022-10-26T04:10:26.215Z,97981.63
2022-10-26T04:12:54.019Z,97973.19
2022-10-26T04:15:21.202Z,97977.47
2022-10-26T04:17:48.540Z,97975.66
2022-10-26T04:20:15.726Z,97975.81
2022-10-26T04:22:42.298Z,97977.47
2022-10-26T04:25:10.471Z,97985.31
2022-10-26T04:27:37.033Z,97992.59
2022-10-26T04:30:05.579Z,97974.47
2022-10-26T04:32:32.148Z,97975.44
2022-10-26T04:34:58.774Z,97977.94
2022-10-26T04:37:25.333Z,97982.09
2022-10-26T04:39:52.278Z,97970.28
2022-10-26T04:42:18.870Z,97971.75
2022-10-26T04:44:45.448Z,97966.41
2022-10-26T04:47:12.019Z,97972.22
2022-10-26T04:49:38.598Z,97960.56
2022-10-26T04:52:05.962Z,97956.28
2022-10-26T04:54:32.567Z,97964.84
2022-10-26T04:56:59.179Z,97964.88
2022-10-26T04:59:25.776Z,97974.16
2022-10-26T05:01:52.480Z,97971.31
2022-10-26T05:04:19.138Z,97970.38
2022-10-26T05:06:45.727Z,97972.16
2022-10-26T05:09:12.355Z,97967.03
2022-10-26T05:11:38.919Z,97969.03
2022-10-26T05:14:05.537Z,97974.75
2022-10-26T05:16:32.124Z,97972.50
2022-10-26T05:18:58.753Z,97981.91
2022-10-26T05:21:25.307Z,97988.72
2022-10-26T05:23:55.642Z,97984.16
2022-10-26T05:26:23.805Z,97979.66
2022-10-26T05:28:51.753Z,97983.97
2022-10-26T05:31:18.431Z,97987.28
2022-10-26T05:33:48.196Z,97988.72
2022-10-26T05:36:14.827Z,97974.41
2022-10-26T05:38:41.494Z,97977.88
2022-10-26T05:41:08.302Z,97972.50
2022-10-26T05:43:34.881Z,97974.16
2022-10-26T05:46:01.480Z,97987.06
2022-10-26T05:48:28.081Z,97976.94
2022-10-26T05:50:54.661Z,97983.25
2022-10-26T05:53:21.206Z,97988.72
2022-10-26T05:55:48.045Z,97987.41
2022-10-26T05:58:15.780Z,97985.38
2022-10-26T06:01:07.914Z,97986.09
2022-10-26T06:03:50.105Z,97992.53
2022-10-26T06:06:17.007Z,97983.22
2022-10-26T06:08:43.829Z,97980.00
2022-10-26T06:11:10.900Z,97975.59
2022-10-26T06:13:37.751Z,97982.00
2022-10-26T06:16:25.656Z,97982.59
2022-10-26T06:19:05.540Z,97990.94
2022-10-26T06:21:32.107Z,97985.81
2022-10-26T06:24:20.107Z,97999.66
2022-10-26T06:27:29.946Z,97998.41
2022-10-26T06:30:01.750Z,97990.31
2022-10-26T06:32:29.308Z,97998.13
2022-10-26T06:35:34.132Z,98008.84
2022-10-26T06:38:05.124Z,98006.94
2022-10-26T06:40:35.328Z,98007.28
2022-10-26T06:43:02.883Z,98005.09
2022-10-26T06:45:29.849Z,98008.06
2022-10-26T06:48:12.027Z,98007.53
2022-10-26T06:50:47.909Z,98016.94
2022-10-26T06:53:43.833Z,98016.38
2022-10-26T06:56:12.723Z,98019.91
2022-10-26T06:58:40.718Z,98010.31
2022-10-26T07:01:07.872Z,98030.09
2022-10-26T07:03:34.875Z,98039.13
2022-10-26T07:06:01.435Z,98030.31
2022-10-26T07:08:28.064Z,98049.75
2022-10-26T07:10:54.618Z,98046.25
2022-10-26T07:13:21.198Z,98052.81
2022-10-26T07:15:48.108Z,98042.75
2022-10-26T07:18:14.878Z,98039.34
2022-10-26T07:20:41.862Z,98031.06
2022-10-26T07:23:12.846Z,98040.34
2022-10-26T07:25:40.580Z,98053.75
2022-10-26T07:28:10.155Z,98038.44
2022-10-26T07:30:38.975Z,98028.59
2022-10-26T07:33:09.757Z,98038.03
2022-10-26T07:35:36.678Z,98041.53
2022-10-26T07:38:04.350Z,98036.31
2022-10-26T07:40:31.677Z,98042.59
2022-10-26T07:43:00.662Z,98056.50
2022-10-26T07:45:29.031Z,98048.47
2022-10-26T07:47:56.377Z,98057.38
2022-10-26T07:50:23.628Z,98043.41
2022-10-26T07:52:50.918Z,98049.56
2022-10-26T07:55:17.961Z,98049.69
2022-10-26T07:57:44.581Z,98052.22
2022-10-26T08:00:11.887Z,98053.22
2022-10-26T08:02:38.646Z,98054.75
2022-10-26T08:05:05.794Z,98050.31
2022-10-26T08:07:32.438Z,98055.44
2022-10-26T08:09:59.162Z,98050.88
2022-10-26T08:12:25.717Z,98054.75
2022-10-26T08:14:52.376Z,98064.47
2022-10-26T08:17:20.776Z,98057.81
2022-10-26T08:19:48.415Z,98060.56
2022-10-26T08:24:46.924Z,98066.13
2022-10-26T08:27:14.985Z,98067.09
2022-10-26T08:29:42.204Z,98070.16
2022-10-26T08:32:08.872Z,98062.34
2022-10-26T08:34:35.450Z,98074.56
2022-10-26T08:37:02.041Z,98074.41
2022-10-26T08:39:30.605Z,98070.63
2022-10-26T08:42:23.050Z,98077.41
2022-10-26T08:44:58.417Z,98066.22
2022-10-26T08:47:37.975Z,98054.50
2022-10-26T08:50:26.354Z,98057.94
2022-10-26T08:53:03.643Z,98072.06
2022-10-26T08:55:47.163Z,98074.88
2022-10-26T08:58:18.721Z,98075.81
2022-10-26T09:00:49.743Z,98062.91
2022-10-26T09:03:18.461Z,98055.75
2022-10-26T09:06:30.073Z,98052.75
2022-10-26T09:09:07.445Z,98054.63
2022-10-26T09:11:58.418Z,98061.66
2022-10-26T09:15:11.755Z,98061.66
2022-10-26T09:18:10.380Z,98067.09
2022-10-26T09:20:58.246Z,98069.81
2022-10-26T09:23:33.745Z,98070.16
2022-10-26T09:26:02.134Z,98074.38
2022-10-26T09:28:34.470Z,98083.19
2022-10-26T09:31:03.211Z,98085.06
2022-10-26T09:33:35.316Z,98088.50
2022-10-26T09:36:04.956Z,98097.06
2022-10-26T09:38:35.526Z,98091.81
2022-10-26T09:41:29.435Z,98085.59
2022-10-26T09:44:13.211Z,98086.28
2022-10-26T09:46:52.045Z,98101.88
2022-10-26T09:49:23.899Z,98109.22
2022-10-26T09:51:51.048Z,98108.84
2022-10-26T09:54:21.079Z,98102.81
2022-10-26T09:56:57.703Z,98109.44
2022-10-26T09:59:26.144Z,98106.25
2022-10-26T10:01:52.730Z,98118.34
2022-10-26T10:04:22.791Z,98106.16
2022-10-26T10:07:14.052Z,98113.88
2022-10-26T10:09:40.666Z,98110.31
2022-10-26T10:12:20.271Z,98108.63
2022-10-26T10:14:58.540Z,98108.78
2022-10-26T10:17:25.830Z,98108.38
2022-10-26T10:19:52.895Z,98117.09
2022-10-26T10:22:25.961Z,98098.00
2022-10-26T10:25:01.131Z,98100.72
2022-10-26T10:27:29.119Z,98099.81
2022-10-26T10:30:01.337Z,98094.75
2022-10-26T10:32:35.467Z,98095.25
2022-10-26T10:35:24.303Z,98084.25
2022-10-26T10:37:52.257Z,98086.34
2022-10-26T10:40:25.235Z,98085.78
2022-10-26T10:42:55.561Z,98079.06
2022-10-26T10:45:29.900Z,98089.69
2022-10-26T10:48:18.889Z,98098.38
2022-10-26T10:50:55.702Z,98096.34
2022-10-26T10:53:37.363Z,98090.47
2022-10-26T10:56:18.930Z,98084.41
2022-10-26T10:59:18.135Z,98078.88
2022-10-26T11:02:11.012Z,98082.16
2022-10-26T11:05:02.883Z,98079.06
2022-10-26T11:07:32.355Z,98082.78
2022-10-26T11:10:03.971Z,98080.81
2022-10-26T11:15:14.609Z,98082.19
2022-10-26T11:18:05.081Z,98084.81
2022-10-26T11:20:35.401Z,98079.50
2022-10-26T11:23:27.037Z,98074.53
2022-10-26T11:26:00.560Z,98069.22
2022-10-26T11:28:27.081Z,98073.81
2022-10-26T11:31:01.188Z,98062.38
2022-10-26T11:33:40.632Z,98078.56
2022-10-26T11:36:17.236Z,98066.34
2022-10-26T11:39:02.723Z,98070.44
2022-10-26T11:41:50.001Z,98080.63
2022-10-26T11:44:23.484Z,98079.59
2022-10-26T11:46:55.862Z,98079.50
2022-10-26T11:49:25.457Z,98086.03
2022-10-26T11:52:10.321Z,98088.81
2022-10-26T11:54:48.655Z,98087.34
2022-10-26T11:57:16.708Z,98079.38
2022-10-26T11:59:50.029Z,98071.78
2022-10-26T12:02:23.288Z,98078.09
2022-10-26T12:05:16.057Z,98073.38
2022-10-26T12:07:56.342Z,98082.97
2022-10-26T12:10:29.306Z,98086.38
2022-10-26T12:12:58.596Z,98081.56
2022-10-26T12:15:45.593Z,98089.50
2022-10-26T12:18:56.266Z,98088.44
2022-10-26T12:21:29.817Z,98090.31
2022-10-26T12:24:22.478Z,98089.09
2022-10-26T12:26:52.042Z,98090.34
2022-10-26T12:29:31.847Z,98091.97
2022-10-26T12:31:59.137Z,98089.75
2022-10-26T12:34:46.131Z,98096.53
2022-10-26T12:37:37.042Z,98093.81
2022-10-26T12:40:35.095Z,98094.06
2022-10-26T12:43:13.554Z,98088.13
2022-10-26T12:45:45.365Z,98084.94
2022-10-26T12:48:39.857Z,98088.69
2022-10-26T12:51:27.842Z,98091.72
2022-10-26T12:53:57.555Z,98087.16
2022-10-26T12:56:50.927Z,98086.56
2022-10-26T12:59:37.345Z,98072.59
2022-10-26T13:02:25.207Z,98083.50
2022-10-26T13:05:08.233Z,98081.78
2022-10-26T13:07:40.490Z,98091.41
2022-10-26T13:10:20.618Z,98091.75
2022-10-26T13:12:51.584Z,98095.63
2022-10-26T13:15:31.128Z,98092.75
2022-10-26T13:18:00.819Z,98095.22
2022-10-26T13:20:30.078Z,98089.13
2022-10-26T13:22:57.133Z,98088.41
2022-10-26T13:25:27.767Z,98110.19
2022-10-26T13:27:59.694Z,98107.28
2022-10-26T13:30:44.410Z,98110.69
2022-10-26T13:33:20.577Z,98115.75
2022-10-26T13:35:47.378Z,98104.88
2022-10-26T13:38:20.820Z,98110.69
2022-10-26T13:40:48.815Z,98121.09
2022-10-26T13:43:21.517Z,98117.84
2022-10-26T13:45:52.509Z,98113.63
2022-10-26T13:48:37.313Z,98121.69
2022-10-26T13:51:14.016Z,98123.56
2022-10-26T13:53:48.081Z,98116.47
2022-10-26T13:56:32.120Z,98122.13
2022-10-26T13:59:02.947Z,98139.25
2022-10-26T14:01:30.714Z,98137.75
2022-10-26T14:03:57.704Z,98139.50
2022-10-26T14:06:29.372Z,98144.44
2022-10-26T14:09:00.806Z,98149.84
2022-10-26T14:11:37.811Z,98144.16
2022-10-26T14:14:04.978Z,98147.59
2022-10-26T14:16:34.222Z,98153.81
2022-10-26T14:19:01.070Z,98142.38
2022-10-26T14:21:27.759Z,98136.16
2022-10-26T14:23:57.103Z,98136.25
2022-10-26T14:26:30.226Z,98140.75
2022-10-26T14:28:59.294Z,98125.63
2022-10-26T14:31:32.539Z,98131.69
2022-10-26T14:34:04.182Z,98138.47
2022-10-26T14:36:50.540Z,98152.72
2022-10-26T14:39:33.346Z,98150.69
2022-10-26T14:42:01.841Z,98156.34
2022-10-26T14:44:30.111Z,98152.41
2022-10-26T14:46:56.705Z,98161.56
2022-10-26T14:49:28.239Z,98156.72
2022-10-26T14:51:59.796Z,98173.06
2022-10-26T14:54:28.852Z,98177.66
2022-10-26T14:56:56.373Z,98175.91
2022-10-26T14:59:28.571Z,98170.16
2022-10-26T15:02:12.819Z,98164.22
2022-10-26T15:04:41.361Z,98162.94
2022-10-26T15:07:13.703Z,98167.91
2022-10-26T15:09:48.488Z,98173.25
2022-10-26T15:12:28.847Z,98175.22
2022-10-26T15:15:05.414Z,98173.91
2022-10-26T15:17:38.663Z,98177.91
2022-10-26T15:20:07.803Z,98182.16
2022-10-26T15:22:34.768Z,98189.44
2022-10-26T15:25:05.473Z,98179.97
2022-10-26T15:27:32.147Z,98187.91
2022-10-26T15:30:16.774Z,98196.34
2022-10-26T15:32:43.375Z,98197.03
2022-10-26T15:35:18.858Z,98205.66
2022-10-26T15:37:46.379Z,98205.94
2022-10-26T15:40:13.679Z,98206.59
2022-10-26T15:42:41.906Z,98213.00
2022-10-26T15:45:25.614Z,98219.34
2022-10-26T15:47:55.603Z,98217.59
2022-10-26T15:50:28.347Z,98207.56
2022-10-26T15:52:56.482Z,98215.41
2022-10-26T15:55:23.070Z,98213.59
2022-10-26T15:57:50.921Z,98217.63
2022-10-26T16:00:18.274Z,98217.72
2022-10-26T16:02:46.061Z,98218.94
2022-10-26T16:05:16.023Z,98219.47
2022-10-26T16:07:44.729Z,98216.03
2022-10-26T16:10:21.654Z,98227.50
2022-10-26T16:12:49.953Z,98228.56
2022-10-26T16:15:19.021Z,98232.22
2022-10-26T16:17:46.611Z,98244.50
2022-10-26T16:20:19.570Z,98250.22
2022-10-26T16:22:48.412Z,98251.91
2022-10-26T16:25:21.736Z,98246.50
2022-10-26T16:27:51.664Z,98248.91
2022-10-26T16:30:19.896Z,98259.34
2022-10-26T16:32:46.836Z,98266.63
2022-10-26T16:35:13.665Z,98269.16
2022-10-26T16:37:40.299Z,98269.03
2022-10-26T16:40:08.492Z,98277.53
2022-10-26T16:42:35.864Z,98279.06
2022-10-26T16:45:03.115Z,98283.25
2022-10-26T16:47:35.491Z,98284.91
2022-10-26T16:50:03.326Z,98290.78
2022-10-26T16:52:29.929Z,98288.13
2022-10-26T16:54:56.908Z,98293.97
2022-10-26T16:57:23.498Z,98296.31
2022-10-26T16:59:50.080Z,98296.59
2022-10-26T17:02:16.886Z,98307.00
2022-10-26T17:04:43.675Z,98312.16
2022-10-26T17:07:11.216Z,98315.59
2022-10-26T17:09:38.022Z,98311.13
2022-10-26T17:12:05.381Z,98317.09
2022-10-26T17:14:32.692Z,98315.00
2022-10-26T17:16:59.276Z,98317.91
2022-10-26T17:19:25.893Z,98318.19
2022-10-26T17:21:52.522Z,98324.00
2022-10-26T17:24:19.135Z,98321.19
2022-10-26T17:26:45.978Z,98331.47
2022-10-26T17:29:13.499Z,98332.28
2022-10-26T17:31:40.178Z,98339.88
2022-10-26T17:34:06.946Z,98344.97
2022-10-26T17:36:33.608Z,98353.88
2022-10-26T17:39:00.951Z,98349.97
2022-10-26T17:41:28.695Z,98356.91
2022-10-26T17:43:55.430Z,98371.28
2022-10-26T17:46:24.911Z,98364.63
2022-10-26T17:48:59.357Z,98363.94
2022-10-26T17:51:28.066Z,98376.63
2022-10-26T17:53:55.335Z,98377.63
2022-10-26T17:56:30.969Z,98387.56
2022-10-26T17:59:00.196Z,98392.59
2022-10-26T18:01:28.214Z,98390.91
2022-10-26T18:03:55.270Z,98394.84
2022-10-26T18:06:22.184Z,98388.16
2022-10-26T18:08:48.803Z,98390.34
2022-10-26T18:11:26.910Z,98383.00
2022-10-26T18:13:55.258Z,98380.69
2022-10-26T18:16:23.461Z,98389.50
2022-10-26T18:19:00.075Z,98399.06
2022-10-26T18:21:28.935Z,98416.03
2022-10-26T18:23:56.266Z,98416.63
2022-10-26T18:26:26.279Z,98414.25
2022-10-26T18:28:53.104Z,98413.03
2022-10-26T18:31:22.353Z,98414.44
2022-10-26T18:33:49.345Z,98412.09
2022-10-26T18:36:19.575Z,98428.63
2022-10-26T18:38:47.120Z,98424.16
2022-10-26T18:41:15.909Z,98418.63
2022-10-26T18:43:44.430Z,98421.69
2022-10-26T18:46:13.240Z,98420.88
2022-10-26T18:48:41.702Z,98426.13
2022-10-26T18:51:13.779Z,98422.94
2022-10-26T18:53:42.057Z,98430.72
2022-10-26T18:56:13.904Z,98427.69
2022-10-26T18:58:47.490Z,98429.38
2022-10-26T19:01:15.807Z,98423.94
2022-10-26T19:03:43.700Z,98431.59
2022-10-26T19:06:18.971Z,98437.31
2022-10-26T19:08:46.401Z,98440.91
2022-10-26T19:11:18.553Z,98436.22
2022-10-26T19:13:45.846Z,98430.50
2022-10-26T19:16:40.638Z,98439.78
2022-10-26T19:19:09.148Z,98443.41
2022-10-26T19:21:36.029Z,98440.66
2022-10-26T19:24:02.919Z,98449.13
2022-10-26T19:26:36.005Z,98462.31
2022-10-26T19:29:07.173Z,98459.81
2022-10-26T19:31:35.851Z,98456.31
2022-10-26T19:34:03.310Z,98454.25
2022-10-26T19:36:30.644Z,98457.00
2022-10-26T19:38:57.244Z,98463.69
2022-10-26T19:41:26.819Z,98463.94
2022-10-26T19:43:54.748Z,98459.75
2022-10-26T19:46:23.937Z,98463.38
2022-10-26T19:48:57.433Z,98458.09
2022-10-26T19:51:26.444Z,98462.78
2022-10-26T19:54:03.736Z,98460.44
2022-10-26T19:56:32.141Z,98465.00
2022-10-26T19:58:59.314Z,98470.41
2022-10-26T20:01:26.002Z,98480.50
2022-10-26T20:03:52.617Z,98476.88
2022-10-26T20:06:19.605Z,98480.97
2022-10-26T20:08:48.252Z,98488.75
2022-10-26T20:11:16.736Z,98486.38
2022-10-26T20:13:45.366Z,98488.19
2022-10-26T20:16:12.795Z,98491.91
2022-10-26T20:18:42.740Z,98491.19
2022-10-26T20:21:16.399Z,98492.28
2022-10-26T20:23:44.228Z,98493.38
2022-10-26T20:26:18.089Z,98496.84
2022-10-26T20:28:51.434Z,98507.25
2022-10-26T20:31:18.293Z,98496.97
2022-10-26T20:33:44.907Z,98498.19
2022-10-26T20:36:11.481Z,98502.63
2022-10-26T20:38:40.025Z,98502.91
2022-10-26T20:41:10.971Z,98503.84
2022-10-26T20:43:40.106Z,98498.84
2022-10-26T20:46:27.251Z,98506.28
2022-10-26T20:48:54.618Z,98506.78
2022-10-26T20:51:37.746Z,98495.69
2022-10-26T20:54:26.144Z,98494.50
2022-10-26T20:57:00.029Z,98494.88
2022-10-26T20:59:35.525Z,98504.94
2022-10-26T21:02:02.176Z,98500.41
2022-10-26T21:04:28.835Z,98498.66
2022-10-26T21:06:55.400Z,98498.75
2022-10-26T21:09:23.498Z,98483.94
2022-10-26T21:11:50.316Z,98487.63
2022-10-26T21:14:16.898Z,98490.41
2022-10-26T21:16:43.472Z,98502.59
2022-10-26T21:19:10.329Z,98502.59
2022-10-26T21:21:36.929Z,98491.84
2022-10-26T21:24:03.698Z,98489.31
2022-10-26T21:26:30.266Z,98490.88
2022-10-26T21:28:56.901Z,98498.03
2022-10-26T21:31:23.472Z,98495.78
2022-10-26T21:33:50.047Z,98496.88
2022-10-26T21:36:17.263Z,98508.59
2022-10-26T21:38:45.684Z,98494.59
2022-10-26T21:41:20.013Z,98486.81
2022-10-26T21:43:55.930Z,98491.41
2022-10-26T21:46:30.301Z,98497.63
2022-10-26T21:48:56.874Z,98497.72
2022-10-26T21:51:23.443Z,98500.72
2022-10-26T21:53:51.571Z,98505.06
2022-10-26T21:56:20.589Z,98515.84
2022-10-26T21:58:48.139Z,98516.06
2022-10-26T22:01:22.824Z,98517.50
2022-10-26T22:03:49.840Z,98512.00
2022-10-26T22:06:21.171Z,98513.69
2022-10-26T22:08:48.266Z,98516.31
2022-10-26T22:11:19.959Z,98516.19
2022-10-26T22:13:47.670Z,98516.19
2022-10-26T22:16:22.902Z,98510.56
2022-10-26T22:18:51.373Z,98514.63
2022-10-26T22:21:19.530Z,98520.38
2022-10-26T22:23:46.445Z,98513.44
2022-10-26T22:26:24.363Z,98514.75
2022-10-26T22:28:53.854Z,98520.25
2022-10-26T22:31:22.632Z,98519.66
2022-10-26T22:33:58.506Z,98517.97
2022-10-26T22:36:27.028Z,98522.16
2022-10-26T22:38:53.942Z,98524.19
2022-10-26T22:41:22.452Z,98534.25
2022-10-26T22:43:52.372Z,98520.59
2022-10-26T22:46:21.935Z,98533.72
2022-10-26T22:49:02.178Z,98531.44
2022-10-26T22:51:34.176Z,98540.19
2022-10-26T22:54:02.156Z,98532.78
2022-10-26T22:56:29.931Z,98534.44
2022-10-26T22:58:56.584Z,98539.06
2022-10-26T23:01:26.128Z,98546.84
2022-10-26T23:03:56.138Z,98538.00
2022-10-26T23:06:25.338Z,98537.03
2022-10-26T23:08:51.973Z,98531.06
2022-10-26T23:11:20.649Z,98539.28
2022-10-26T23:13:47.500Z,98528.03
2022-10-26T23:16:17.901Z,98537.72
2022-10-26T23:18:44.717Z,98536.88
2022-10-26T23:21:12.791Z,98538.16
2022-10-26T23:23:39.838Z,98546.16
2022-10-26T23:26:09.218Z,98544.25
2022-10-26T23:28:36.558Z,98547.22
2022-10-26T23:31:03.224Z,98543.66
2022-10-26T23:33:29.917Z,98550.81
2022-10-26T23:35:57.423Z,98544.72
2022-10-26T23:38:24.679Z,98551.16
2022-10-26T23:40:59.145Z,98540.75
2022-10-26T23:43:27.357Z,98534.06
2022-10-26T23:45:55.253Z,98538.22
2022-10-26T23:48:22.393Z,98536.75
2022-10-26T23:50:50.442Z,98544.03
2022-10-26T23:53:19.735Z,98548.66
2022-10-26T23:55:47.222Z,98543.97
2022-10-26T23:58:15.158Z,98546.25
